sensor_id;sensor_type;location;lat;lon;timestamp;P1;durP1;ratioP1;P2;durP2;ratioP2
78542;SDS011;67836;52.430;14.446;2024-01-11T00:01:22;11.00;;;7.13;;
78542;SDS011;67836;52.430;14.446;2024-01-11T00:04:06;7.95;;;6.20;;
78542;SDS011;67836;52.430;14.446;2024-01-11T00:06:50;13.82;;;4.03;;
78542;SDS011;67836;52.430;14.446;2024-01-11T00:09:38;6.82;;;3.88;;
78542;SDS011;67836;52.430;14.446;2024-01-11T00:12:22;15.95;;;8.98;;
78542;SDS011;67836;52.430;14.446;2024-01-11T00:15:06;7.22;;;4.75;;
78542;SDS011;67836;52.430;14.446;2024-01-11T00:17:50;4.43;;;3.50;;
78542;SDS011;67836;52.430;14.446;2024-01-11T00:20:34;24.52;;;12.57;;
78542;SDS011;67836;52.430;14.446;2024-01-11T00:23:18;13.50;;;7.03;;
78542;SDS011;67836;52.430;14.446;2024-01-11T00:26:02;10.10;;;5.28;;
78542;SDS011;67836;52.430;14.446;2024-01-11T00:28:46;4.28;;;1.58;;
78542;SDS011;67836;52.430;14.446;2024-01-11T00:31:30;9.07;;;6.13;;
78542;SDS011;67836;52.430;14.446;2024-01-11T00:34:14;8.10;;;3.92;;
78542;SDS011;67836;52.430;14.446;2024-01-11T00:36:58;20.55;;;9.95;;
78542;SDS011;67836;52.430;14.446;2024-01-11T00:39:42;23.83;;;10.93;;
78542;SDS011;67836;52.430;14.446;2024-01-11T00:42:26;13.55;;;6.20;;
78542;SDS011;67836;52.430;14.446;2024-01-11T00:45:09;7.03;;;5.47;;
78542;SDS011;67836;52.430;14.446;2024-01-11T00:47:53;5.25;;;3.00;;
78542;SDS011;67836;52.430;14.446;2024-01-11T00:50:37;10.65;;;4.18;;
78542;SDS011;67836;52.430;14.446;2024-01-11T00:53:21;6.18;;;3.55;;
78542;SDS011;67836;52.430;14.446;2024-01-11T00:56:05;14.35;;;8.40;;
78542;SDS011;67836;52.430;14.446;2024-01-11T00:58:49;20.77;;;10.95;;
78542;SDS011;67836;52.430;14.446;2024-01-11T01:01:33;18.50;;;8.85;;
78542;SDS011;67836;52.430;14.446;2024-01-11T01:04:17;13.18;;;6.10;;
78542;SDS011;67836;52.430;14.446;2024-01-11T01:07:01;13.85;;;6.03;;
78542;SDS011;67836;52.430;14.446;2024-01-11T01:09:44;4.50;;;4.05;;
78542;SDS011;67836;52.430;14.446;2024-01-11T01:12:28;15.30;;;6.78;;
78542;SDS011;67836;52.430;14.446;2024-01-11T01:15:12;5.75;;;3.67;;
78542;SDS011;67836;52.430;14.446;2024-01-11T01:17:56;8.00;;;4.05;;
78542;SDS011;67836;52.430;14.446;2024-01-11T01:20:40;1.70;;;1.30;;
78542;SDS011;67836;52.430;14.446;2024-01-11T01:23:24;2.92;;;2.13;;
78542;SDS011;67836;52.430;14.446;2024-01-11T01:26:08;5.88;;;2.92;;
78542;SDS011;67836;52.430;14.446;2024-01-11T01:28:52;12.98;;;5.28;;
78542;SDS011;67836;52.430;14.446;2024-01-11T01:31:36;16.83;;;5.15;;
78542;SDS011;67836;52.430;14.446;2024-01-11T01:34:21;3.67;;;2.88;;
78542;SDS011;67836;52.430;14.446;2024-01-11T01:37:05;2.70;;;2.47;;
78542;SDS011;67836;52.430;14.446;2024-01-11T01:39:49;2.58;;;1.77;;
78542;SDS011;67836;52.430;14.446;2024-01-11T01:42:33;3.22;;;2.08;;
78542;SDS011;67836;52.430;14.446;2024-01-11T01:45:17;6.65;;;3.85;;
78542;SDS011;67836;52.430;14.446;2024-01-11T01:48:01;6.78;;;2.88;;
78542;SDS011;67836;52.430;14.446;2024-01-11T01:50:46;7.03;;;3.63;;
78542;SDS011;67836;52.430;14.446;2024-01-11T01:53:34;4.78;;;2.88;;
78542;SDS011;67836;52.430;14.446;2024-01-11T01:56:18;5.43;;;3.47;;
78542;SDS011;67836;52.430;14.446;2024-01-11T01:59:02;11.88;;;4.88;;
78542;SDS011;67836;52.430;14.446;2024-01-11T02:01:47;6.22;;;3.92;;
78542;SDS011;67836;52.430;14.446;2024-01-11T02:04:31;5.78;;;4.03;;
78542;SDS011;67836;52.430;14.446;2024-01-11T02:07:15;12.88;;;7.03;;
78542;SDS011;67836;52.430;14.446;2024-01-11T02:09:59;12.77;;;5.05;;
78542;SDS011;67836;52.430;14.446;2024-01-11T02:12:43;8.00;;;4.60;;
78542;SDS011;67836;52.430;14.446;2024-01-11T02:15:27;10.25;;;6.95;;
78542;SDS011;67836;52.430;14.446;2024-01-11T02:18:10;12.50;;;6.85;;
78542;SDS011;67836;52.430;14.446;2024-01-11T02:20:55;10.30;;;5.57;;
78542;SDS011;67836;52.430;14.446;2024-01-11T02:24:12;6.53;;;3.75;;
78542;SDS011;67836;52.430;14.446;2024-01-11T02:29:43;24.00;;;10.23;;
78542;SDS011;67836;52.430;14.446;2024-01-11T02:32:27;14.60;;;6.97;;
78542;SDS011;67836;52.430;14.446;2024-01-11T02:35:12;17.27;;;8.68;;
78542;SDS011;67836;52.430;14.446;2024-01-11T02:37:55;22.10;;;10.55;;
78542;SDS011;67836;52.430;14.446;2024-01-11T02:40:40;18.95;;;8.98;;
78542;SDS011;67836;52.430;14.446;2024-01-11T02:43:23;7.60;;;4.35;;
78542;SDS011;67836;52.430;14.446;2024-01-11T02:46:07;1.63;;;1.52;;
78542;SDS011;67836;52.430;14.446;2024-01-11T02:48:51;16.27;;;5.97;;
78542;SDS011;67836;52.430;14.446;2024-01-11T02:51:36;16.25;;;8.13;;
78542;SDS011;67836;52.430;14.446;2024-01-11T02:54:20;5.38;;;2.72;;
78542;SDS011;67836;52.430;14.446;2024-01-11T02:57:04;1.98;;;1.88;;
78542;SDS011;67836;52.430;14.446;2024-01-11T02:59:47;6.15;;;3.00;;
78542;SDS011;67836;52.430;14.446;2024-01-11T03:02:31;9.57;;;4.15;;
78542;SDS011;67836;52.430;14.446;2024-01-11T03:05:15;10.73;;;4.28;;
78542;SDS011;67836;52.430;14.446;2024-01-11T03:07:59;6.10;;;4.63;;
78542;SDS011;67836;52.430;14.446;2024-01-11T03:10:43;20.85;;;8.27;;
78542;SDS011;67836;52.430;14.446;2024-01-11T03:13:27;9.55;;;3.90;;
78542;SDS011;67836;52.430;14.446;2024-01-11T03:16:10;0.93;;;0.93;;
78542;SDS011;67836;52.430;14.446;2024-01-11T03:18:54;2.50;;;1.85;;
78542;SDS011;67836;52.430;14.446;2024-01-11T03:21:42;5.47;;;2.65;;
78542;SDS011;67836;52.430;14.446;2024-01-11T03:24:26;6.75;;;3.50;;
78542;SDS011;67836;52.430;14.446;2024-01-11T03:27:10;9.23;;;4.80;;
78542;SDS011;67836;52.430;14.446;2024-01-11T03:29:54;22.27;;;9.93;;
78542;SDS011;67836;52.430;14.446;2024-01-11T03:32:39;24.05;;;12.10;;
78542;SDS011;67836;52.430;14.446;2024-01-11T03:35:23;20.52;;;11.95;;
78542;SDS011;67836;52.430;14.446;2024-01-11T03:38:07;11.40;;;6.32;;
78542;SDS011;67836;52.430;14.446;2024-01-11T03:40:51;20.90;;;9.75;;
78542;SDS011;67836;52.430;14.446;2024-01-11T03:43:36;16.92;;;9.57;;
78542;SDS011;67836;52.430;14.446;2024-01-11T03:46:19;15.30;;;7.80;;
78542;SDS011;67836;52.430;14.446;2024-01-11T03:49:03;15.20;;;6.85;;
78542;SDS011;67836;52.430;14.446;2024-01-11T03:51:47;10.65;;;4.75;;
78542;SDS011;67836;52.430;14.446;2024-01-11T03:54:31;8.20;;;4.53;;
78542;SDS011;67836;52.430;14.446;2024-01-11T03:57:15;9.65;;;5.28;;
78542;SDS011;67836;52.430;14.446;2024-01-11T04:00:00;15.75;;;6.53;;
78542;SDS011;67836;52.430;14.446;2024-01-11T04:02:43;14.25;;;5.75;;
78542;SDS011;67836;52.430;14.446;2024-01-11T04:05:28;10.90;;;5.53;;
78542;SDS011;67836;52.430;14.446;2024-01-11T04:08:11;13.00;;;4.63;;
78542;SDS011;67836;52.430;14.446;2024-01-11T04:10:55;9.93;;;4.25;;
78542;SDS011;67836;52.430;14.446;2024-01-11T04:13:39;5.43;;;1.92;;
78542;SDS011;67836;52.430;14.446;2024-01-11T04:16:23;6.90;;;2.85;;
78542;SDS011;67836;52.430;14.446;2024-01-11T04:19:07;12.70;;;6.30;;
78542;SDS011;67836;52.430;14.446;2024-01-11T04:21:51;16.95;;;5.78;;
78542;SDS011;67836;52.430;14.446;2024-01-11T04:24:35;11.55;;;5.57;;
78542;SDS011;67836;52.430;14.446;2024-01-11T04:27:19;5.43;;;2.83;;
78542;SDS011;67836;52.430;14.446;2024-01-11T04:30:04;11.40;;;4.97;;
78542;SDS011;67836;52.430;14.446;2024-01-11T04:32:47;10.38;;;5.03;;
78542;SDS011;67836;52.430;14.446;2024-01-11T04:35:31;19.67;;;8.18;;
78542;SDS011;67836;52.430;14.446;2024-01-11T04:38:15;16.88;;;7.88;;
78542;SDS011;67836;52.430;14.446;2024-01-11T04:40:59;5.75;;;2.30;;
78542;SDS011;67836;52.430;14.446;2024-01-11T04:43:43;9.02;;;4.45;;
78542;SDS011;67836;52.430;14.446;2024-01-11T04:46:27;7.03;;;1.90;;
78542;SDS011;67836;52.430;14.446;2024-01-11T04:49:11;14.23;;;6.45;;
78542;SDS011;67836;52.430;14.446;2024-01-11T04:51:55;26.38;;;14.25;;
78542;SDS011;67836;52.430;14.446;2024-01-11T04:54:39;12.60;;;5.63;;
78542;SDS011;67836;52.430;14.446;2024-01-11T04:57:23;13.57;;;5.55;;
78542;SDS011;67836;52.430;14.446;2024-01-11T05:00:07;10.55;;;4.47;;
78542;SDS011;67836;52.430;14.446;2024-01-11T05:02:51;20.50;;;7.82;;
78542;SDS011;67836;52.430;14.446;2024-01-11T05:05:35;13.15;;;5.18;;
78542;SDS011;67836;52.430;14.446;2024-01-11T05:08:19;17.17;;;8.20;;
78542;SDS011;67836;52.430;14.446;2024-01-11T05:11:03;9.50;;;4.50;;
78542;SDS011;67836;52.430;14.446;2024-01-11T05:13:48;16.23;;;6.80;;
78542;SDS011;67836;52.430;14.446;2024-01-11T05:16:31;17.63;;;8.38;;
78542;SDS011;67836;52.430;14.446;2024-01-11T05:19:15;22.50;;;10.15;;
78542;SDS011;67836;52.430;14.446;2024-01-11T05:21:59;24.08;;;12.13;;
78542;SDS011;67836;52.430;14.446;2024-01-11T05:24:43;15.15;;;7.00;;
78542;SDS011;67836;52.430;14.446;2024-01-11T05:27:27;16.08;;;6.28;;
78542;SDS011;67836;52.430;14.446;2024-01-11T05:30:11;37.05;;;19.33;;
78542;SDS011;67836;52.430;14.446;2024-01-11T05:32:54;28.75;;;14.15;;
78542;SDS011;67836;52.430;14.446;2024-01-11T05:35:38;29.98;;;16.35;;
78542;SDS011;67836;52.430;14.446;2024-01-11T05:38:22;27.98;;;13.55;;
78542;SDS011;67836;52.430;14.446;2024-01-11T05:41:06;27.90;;;13.00;;
78542;SDS011;67836;52.430;14.446;2024-01-11T05:43:49;20.48;;;9.50;;
78542;SDS011;67836;52.430;14.446;2024-01-11T05:46:33;22.58;;;10.73;;
78542;SDS011;67836;52.430;14.446;2024-01-11T05:49:17;27.25;;;10.82;;
78542;SDS011;67836;52.430;14.446;2024-01-11T05:52:01;25.50;;;11.07;;
78542;SDS011;67836;52.430;14.446;2024-01-11T05:54:44;23.67;;;9.70;;
78542;SDS011;67836;52.430;14.446;2024-01-11T05:57:29;34.13;;;14.93;;
78542;SDS011;67836;52.430;14.446;2024-01-11T06:00:12;28.27;;;14.18;;
78542;SDS011;67836;52.430;14.446;2024-01-11T06:02:56;26.55;;;11.50;;
78542;SDS011;67836;52.430;14.446;2024-01-11T06:05:39;35.17;;;16.63;;
78542;SDS011;67836;52.430;14.446;2024-01-11T06:08:23;28.85;;;14.90;;
78542;SDS011;67836;52.430;14.446;2024-01-11T06:11:07;22.02;;;11.27;;
78542;SDS011;67836;52.430;14.446;2024-01-11T06:13:51;34.47;;;14.85;;
78542;SDS011;67836;52.430;14.446;2024-01-11T06:16:35;21.92;;;10.80;;
78542;SDS011;67836;52.430;14.446;2024-01-11T06:19:20;32.13;;;15.75;;
78542;SDS011;67836;52.430;14.446;2024-01-11T06:22:04;6.90;;;5.03;;
78542;SDS011;67836;52.430;14.446;2024-01-11T06:24:49;29.52;;;13.25;;
78542;SDS011;67836;52.430;14.446;2024-01-11T06:27:33;27.90;;;13.75;;
78542;SDS011;67836;52.430;14.446;2024-01-11T06:30:17;29.27;;;13.85;;
78542;SDS011;67836;52.430;14.446;2024-01-11T06:33:01;20.00;;;8.95;;
78542;SDS011;67836;52.430;14.446;2024-01-11T06:35:45;25.05;;;11.63;;
78542;SDS011;67836;52.430;14.446;2024-01-11T06:38:29;33.50;;;14.90;;
78542;SDS011;67836;52.430;14.446;2024-01-11T06:41:13;21.45;;;10.27;;
78542;SDS011;67836;52.430;14.446;2024-01-11T06:43:57;26.17;;;11.18;;
78542;SDS011;67836;52.430;14.446;2024-01-11T06:46:41;28.05;;;10.98;;
78542;SDS011;67836;52.430;14.446;2024-01-11T06:49:25;24.65;;;9.80;;
78542;SDS011;67836;52.430;14.446;2024-01-11T06:52:09;36.80;;;16.23;;
78542;SDS011;67836;52.430;14.446;2024-01-11T06:54:53;25.05;;;11.05;;
78542;SDS011;67836;52.430;14.446;2024-01-11T06:57:37;28.77;;;11.95;;
78542;SDS011;67836;52.430;14.446;2024-01-11T07:00:21;30.20;;;13.90;;
78542;SDS011;67836;52.430;14.446;2024-01-11T07:03:05;30.52;;;14.95;;
78542;SDS011;67836;52.430;14.446;2024-01-11T07:05:49;31.65;;;14.93;;
78542;SDS011;67836;52.430;14.446;2024-01-11T07:08:33;36.60;;;15.43;;
78542;SDS011;67836;52.430;14.446;2024-01-11T07:11:18;28.60;;;13.80;;
78542;SDS011;67836;52.430;14.446;2024-01-11T07:14:02;33.35;;;14.40;;
78542;SDS011;67836;52.430;14.446;2024-01-11T07:16:47;29.27;;;12.48;;
78542;SDS011;67836;52.430;14.446;2024-01-11T07:19:31;24.27;;;11.45;;
78542;SDS011;67836;52.430;14.446;2024-01-11T07:22:15;33.72;;;13.85;;
78542;SDS011;67836;52.430;14.446;2024-01-11T07:24:59;22.00;;;11.07;;
78542;SDS011;67836;52.430;14.446;2024-01-11T07:27:43;29.80;;;13.80;;
78542;SDS011;67836;52.430;14.446;2024-01-11T07:30:27;30.05;;;15.07;;
78542;SDS011;67836;52.430;14.446;2024-01-11T07:33:11;20.30;;;10.02;;
78542;SDS011;67836;52.430;14.446;2024-01-11T07:35:55;32.88;;;14.32;;
78542;SDS011;67836;52.430;14.446;2024-01-11T07:38:39;16.90;;;8.60;;
78542;SDS011;67836;52.430;14.446;2024-01-11T07:41:23;26.95;;;11.65;;
78542;SDS011;67836;52.430;14.446;2024-01-11T07:44:07;33.70;;;14.70;;
78542;SDS011;67836;52.430;14.446;2024-01-11T07:46:50;29.13;;;13.60;;
78542;SDS011;67836;52.430;14.446;2024-01-11T07:49:34;28.30;;;13.30;;
78542;SDS011;67836;52.430;14.446;2024-01-11T07:52:18;31.23;;;15.50;;
78542;SDS011;67836;52.430;14.446;2024-01-11T07:55:02;22.20;;;8.80;;
78542;SDS011;67836;52.430;14.446;2024-01-11T07:57:51;27.90;;;12.18;;
78542;SDS011;67836;52.430;14.446;2024-01-11T08:00:35;35.97;;;15.85;;
78542;SDS011;67836;52.430;14.446;2024-01-11T08:03:19;30.98;;;13.20;;
78542;SDS011;67836;52.430;14.446;2024-01-11T08:06:03;23.48;;;10.63;;
78542;SDS011;67836;52.430;14.446;2024-01-11T08:08:47;10.95;;;4.57;;
78542;SDS011;67836;52.430;14.446;2024-01-11T08:11:35;25.23;;;10.98;;
78542;SDS011;67836;52.430;14.446;2024-01-11T08:14:19;11.23;;;4.50;;
78542;SDS011;67836;52.430;14.446;2024-01-11T08:17:03;17.90;;;7.07;;
78542;SDS011;67836;52.430;14.446;2024-01-11T08:19:48;20.35;;;7.95;;
78542;SDS011;67836;52.430;14.446;2024-01-11T08:22:32;23.17;;;8.50;;
78542;SDS011;67836;52.430;14.446;2024-01-11T08:25:17;13.85;;;6.20;;
78542;SDS011;67836;52.430;14.446;2024-01-11T08:28:01;18.00;;;7.43;;
78542;SDS011;67836;52.430;14.446;2024-01-11T08:30:47;14.65;;;5.45;;
78542;SDS011;67836;52.430;14.446;2024-01-11T08:33:31;25.08;;;12.50;;
78542;SDS011;67836;52.430;14.446;2024-01-11T08:36:15;27.70;;;11.27;;
78542;SDS011;67836;52.430;14.446;2024-01-11T08:38:58;21.20;;;7.60;;
78542;SDS011;67836;52.430;14.446;2024-01-11T08:41:42;19.73;;;9.60;;
78542;SDS011;67836;52.430;14.446;2024-01-11T08:44:26;24.10;;;9.27;;
78542;SDS011;67836;52.430;14.446;2024-01-11T08:47:10;24.83;;;9.52;;
78542;SDS011;67836;52.430;14.446;2024-01-11T08:49:54;23.55;;;10.07;;
78542;SDS011;67836;52.430;14.446;2024-01-11T08:52:40;31.52;;;13.75;;
78542;SDS011;67836;52.430;14.446;2024-01-11T08:55:24;22.42;;;8.48;;
78542;SDS011;67836;52.430;14.446;2024-01-11T08:58:08;17.33;;;6.70;;
78542;SDS011;67836;52.430;14.446;2024-01-11T09:00:52;5.65;;;2.13;;
78542;SDS011;67836;52.430;14.446;2024-01-11T09:03:36;14.20;;;5.22;;
78542;SDS011;67836;52.430;14.446;2024-01-11T09:06:20;22.65;;;9.50;;
78542;SDS011;67836;52.430;14.446;2024-01-11T09:09:04;20.13;;;7.85;;
78542;SDS011;67836;52.430;14.446;2024-01-11T09:11:53;22.38;;;8.43;;
78542;SDS011;67836;52.430;14.446;2024-01-11T09:14:37;27.20;;;11.07;;
78542;SDS011;67836;52.430;14.446;2024-01-11T09:17:23;17.85;;;7.10;;
78542;SDS011;67836;52.430;14.446;2024-01-11T09:20:07;18.63;;;8.45;;
78542;SDS011;67836;52.430;14.446;2024-01-11T09:22:51;34.40;;;13.45;;
78542;SDS011;67836;52.430;14.446;2024-01-11T09:25:35;16.40;;;7.13;;
78542;SDS011;67836;52.430;14.446;2024-01-11T09:28:19;20.38;;;7.32;;
78542;SDS011;67836;52.430;14.446;2024-01-11T09:31:03;12.85;;;5.25;;
78542;SDS011;67836;52.430;14.446;2024-01-11T09:33:46;24.92;;;10.77;;
78542;SDS011;67836;52.430;14.446;2024-01-11T09:36:31;24.23;;;10.02;;
78542;SDS011;67836;52.430;14.446;2024-01-11T09:39:15;16.67;;;6.65;;
78542;SDS011;67836;52.430;14.446;2024-01-11T09:42:06;30.58;;;11.65;;
78542;SDS011;67836;52.430;14.446;2024-01-11T09:44:50;29.40;;;12.50;;
78542;SDS011;67836;52.430;14.446;2024-01-11T09:47:35;9.25;;;3.67;;
78542;SDS011;67836;52.430;14.446;2024-01-11T09:50:19;20.42;;;9.93;;
78542;SDS011;67836;52.430;14.446;2024-01-11T09:53:05;24.45;;;10.30;;
78542;SDS011;67836;52.430;14.446;2024-01-11T09:55:49;10.15;;;5.13;;
78542;SDS011;67836;52.430;14.446;2024-01-11T09:58:35;7.13;;;3.08;;
78542;SDS011;67836;52.430;14.446;2024-01-11T10:01:22;21.25;;;9.13;;
78542;SDS011;67836;52.430;14.446;2024-01-11T10:04:07;18.13;;;6.63;;
78542;SDS011;67836;52.430;14.446;2024-01-11T10:06:52;19.30;;;7.10;;
78542;SDS011;67836;52.430;14.446;2024-01-11T10:09:37;16.23;;;4.40;;
78542;SDS011;67836;52.430;14.446;2024-01-11T10:12:20;11.90;;;5.53;;
78542;SDS011;67836;52.430;14.446;2024-01-11T10:15:09;15.80;;;7.00;;
78542;SDS011;67836;52.430;14.446;2024-01-11T10:17:53;12.77;;;4.70;;
78542;SDS011;67836;52.430;14.446;2024-01-11T10:20:37;20.92;;;7.43;;
78542;SDS011;67836;52.430;14.446;2024-01-11T10:23:21;10.05;;;3.78;;
78542;SDS011;67836;52.430;14.446;2024-01-11T10:26:05;8.45;;;4.20;;
78542;SDS011;67836;52.430;14.446;2024-01-11T10:28:51;8.88;;;3.35;;
78542;SDS011;67836;52.430;14.446;2024-01-11T10:31:35;2.40;;;1.88;;
78542;SDS011;67836;52.430;14.446;2024-01-11T10:34:18;2.83;;;1.55;;
78542;SDS011;67836;52.430;14.446;2024-01-11T10:37:04;14.00;;;5.05;;
78542;SDS011;67836;52.430;14.446;2024-01-11T10:39:48;8.85;;;4.18;;
78542;SDS011;67836;52.430;14.446;2024-01-11T10:42:34;9.15;;;3.40;;
78542;SDS011;67836;52.430;14.446;2024-01-11T10:45:20;9.43;;;4.13;;
78542;SDS011;67836;52.430;14.446;2024-01-11T10:48:12;10.93;;;3.92;;
78542;SDS011;67836;52.430;14.446;2024-01-11T10:51:01;11.23;;;5.55;;
78542;SDS011;67836;52.430;14.446;2024-01-11T10:53:45;5.25;;;2.42;;
78542;SDS011;67836;52.430;14.446;2024-01-11T10:56:29;8.45;;;3.58;;
78542;SDS011;67836;52.430;14.446;2024-01-11T10:59:13;19.23;;;8.50;;
78542;SDS011;67836;52.430;14.446;2024-01-11T11:02:02;3.95;;;2.55;;
78542;SDS011;67836;52.430;14.446;2024-01-11T11:04:48;8.90;;;4.80;;
78542;SDS011;67836;52.430;14.446;2024-01-11T11:07:34;15.10;;;6.15;;
78542;SDS011;67836;52.430;14.446;2024-01-11T11:10:18;11.45;;;5.32;;
78542;SDS011;67836;52.430;14.446;2024-01-11T11:13:03;6.57;;;2.85;;
78542;SDS011;67836;52.430;14.446;2024-01-11T11:15:47;7.55;;;3.38;;
78542;SDS011;67836;52.430;14.446;2024-01-11T11:18:32;19.13;;;7.22;;
78542;SDS011;67836;52.430;14.446;2024-01-11T11:21:20;6.57;;;3.83;;
78542;SDS011;67836;52.430;14.446;2024-01-11T11:24:04;11.93;;;5.68;;
78542;SDS011;67836;52.430;14.446;2024-01-11T11:26:48;14.88;;;7.30;;
78542;SDS011;67836;52.430;14.446;2024-01-11T11:29:32;20.08;;;8.27;;
78542;SDS011;67836;52.430;14.446;2024-01-11T11:32:16;12.40;;;5.38;;
78542;SDS011;67836;52.430;14.446;2024-01-11T11:35:00;14.93;;;6.45;;
78542;SDS011;67836;52.430;14.446;2024-01-11T11:37:44;14.02;;;6.68;;
78542;SDS011;67836;52.430;14.446;2024-01-11T11:40:37;6.25;;;2.80;;
78542;SDS011;67836;52.430;14.446;2024-01-11T11:43:27;9.18;;;4.43;;
78542;SDS011;67836;52.430;14.446;2024-01-11T11:46:11;8.00;;;4.00;;
78542;SDS011;67836;52.430;14.446;2024-01-11T11:48:55;4.93;;;2.63;;
78542;SDS011;67836;52.430;14.446;2024-01-11T11:51:40;5.95;;;3.28;;
78542;SDS011;67836;52.430;14.446;2024-01-11T11:54:24;15.38;;;6.18;;
78542;SDS011;67836;52.430;14.446;2024-01-11T11:57:08;5.15;;;2.28;;
78542;SDS011;67836;52.430;14.446;2024-01-11T11:59:57;8.18;;;4.30;;
78542;SDS011;67836;52.430;14.446;2024-01-11T12:02:49;10.77;;;5.28;;
78542;SDS011;67836;52.430;14.446;2024-01-11T12:05:37;9.95;;;4.20;;
78542;SDS011;67836;52.430;14.446;2024-01-11T12:08:21;15.07;;;5.32;;
78542;SDS011;67836;52.430;14.446;2024-01-11T12:11:05;8.95;;;3.70;;
78542;SDS011;67836;52.430;14.446;2024-01-11T12:13:50;4.47;;;2.53;;
78542;SDS011;67836;52.430;14.446;2024-01-11T12:16:34;10.88;;;5.10;;
78542;SDS011;67836;52.430;14.446;2024-01-11T12:19:18;5.90;;;3.70;;
78542;SDS011;67836;52.430;14.446;2024-01-11T12:22:02;10.85;;;5.18;;
78542;SDS011;67836;52.430;14.446;2024-01-11T12:24:46;13.43;;;6.57;;
78542;SDS011;67836;52.430;14.446;2024-01-11T12:27:31;18.15;;;7.53;;
78542;SDS011;67836;52.430;14.446;2024-01-11T12:30:18;7.75;;;3.28;;
78542;SDS011;67836;52.430;14.446;2024-01-11T12:33:02;10.18;;;4.65;;
78542;SDS011;67836;52.430;14.446;2024-01-11T12:35:47;7.45;;;4.32;;
78542;SDS011;67836;52.430;14.446;2024-01-11T12:38:31;11.90;;;5.82;;
78542;SDS011;67836;52.430;14.446;2024-01-11T12:41:17;11.77;;;5.50;;
78542;SDS011;67836;52.430;14.446;2024-01-11T12:44:01;12.43;;;6.57;;
78542;SDS011;67836;52.430;14.446;2024-01-11T12:46:49;6.93;;;3.10;;
78542;SDS011;67836;52.430;14.446;2024-01-11T12:49:32;17.52;;;7.80;;
78542;SDS011;67836;52.430;14.446;2024-01-11T12:52:17;12.43;;;5.75;;
78542;SDS011;67836;52.430;14.446;2024-01-11T12:55:01;19.17;;;8.52;;
78542;SDS011;67836;52.430;14.446;2024-01-11T12:57:45;14.65;;;6.30;;
78542;SDS011;67836;52.430;14.446;2024-01-11T13:00:29;15.88;;;6.95;;
78542;SDS011;67836;52.430;14.446;2024-01-11T13:03:13;20.48;;;9.57;;
78542;SDS011;67836;52.430;14.446;2024-01-11T13:05:57;15.18;;;7.75;;
78542;SDS011;67836;52.430;14.446;2024-01-11T13:08:42;24.25;;;11.02;;
78542;SDS011;67836;52.430;14.446;2024-01-11T13:11:26;22.23;;;10.93;;
78542;SDS011;67836;52.430;14.446;2024-01-11T13:14:11;12.27;;;4.65;;
78542;SDS011;67836;52.430;14.446;2024-01-11T13:17:02;17.77;;;9.18;;
78542;SDS011;67836;52.430;14.446;2024-01-11T13:19:46;11.93;;;5.00;;
78542;SDS011;67836;52.430;14.446;2024-01-11T13:22:30;14.10;;;5.20;;
78542;SDS011;67836;52.430;14.446;2024-01-11T13:25:14;12.57;;;6.22;;
78542;SDS011;67836;52.430;14.446;2024-01-11T13:27:57;10.93;;;4.78;;
78542;SDS011;67836;52.430;14.446;2024-01-11T13:30:42;11.48;;;5.05;;
78542;SDS011;67836;52.430;14.446;2024-01-11T13:33:26;11.70;;;5.22;;
78542;SDS011;67836;52.430;14.446;2024-01-11T13:36:10;8.57;;;3.70;;
78542;SDS011;67836;52.430;14.446;2024-01-11T13:38:54;16.17;;;7.93;;
78542;SDS011;67836;52.430;14.446;2024-01-11T13:41:37;17.02;;;8.35;;
78542;SDS011;67836;52.430;14.446;2024-01-11T13:44:24;20.60;;;9.95;;
78542;SDS011;67836;52.430;14.446;2024-01-11T13:47:08;6.68;;;3.35;;
78542;SDS011;67836;52.430;14.446;2024-01-11T13:49:52;4.38;;;3.50;;
78542;SDS011;67836;52.430;14.446;2024-01-11T13:52:36;18.55;;;8.43;;
78542;SDS011;67836;52.430;14.446;2024-01-11T13:55:20;8.48;;;4.55;;
78542;SDS011;67836;52.430;14.446;2024-01-11T13:58:06;12.65;;;6.53;;
78542;SDS011;67836;52.430;14.446;2024-01-11T14:00:51;9.77;;;4.80;;
78542;SDS011;67836;52.430;14.446;2024-01-11T14:03:34;12.85;;;5.90;;
78542;SDS011;67836;52.430;14.446;2024-01-11T14:06:18;8.25;;;4.53;;
78542;SDS011;67836;52.430;14.446;2024-01-11T14:09:02;17.48;;;8.98;;
78542;SDS011;67836;52.430;14.446;2024-01-11T14:11:48;25.27;;;11.80;;
78542;SDS011;67836;52.430;14.446;2024-01-11T14:14:32;20.00;;;9.13;;
78542;SDS011;67836;52.430;14.446;2024-01-11T14:17:16;25.98;;;12.23;;
78542;SDS011;67836;52.430;14.446;2024-01-11T14:20:01;13.95;;;6.10;;
78542;SDS011;67836;52.430;14.446;2024-01-11T14:22:45;22.00;;;9.75;;
78542;SDS011;67836;52.430;14.446;2024-01-11T14:25:35;14.77;;;6.97;;
78542;SDS011;67836;52.430;14.446;2024-01-11T14:28:19;14.98;;;6.15;;
78542;SDS011;67836;52.430;14.446;2024-01-11T14:31:03;7.05;;;4.13;;
78542;SDS011;67836;52.430;14.446;2024-01-11T14:33:47;16.80;;;8.52;;
78542;SDS011;67836;52.430;14.446;2024-01-11T14:36:31;6.95;;;4.57;;
78542;SDS011;67836;52.430;14.446;2024-01-11T14:39:15;9.27;;;4.65;;
78542;SDS011;67836;52.430;14.446;2024-01-11T14:41:59;24.13;;;11.13;;
78542;SDS011;67836;52.430;14.446;2024-01-11T14:44:43;20.92;;;5.32;;
78542;SDS011;67836;52.430;14.446;2024-01-11T14:47:27;20.95;;;8.05;;
78542;SDS011;67836;52.430;14.446;2024-01-11T14:50:10;16.90;;;8.38;;
78542;SDS011;67836;52.430;14.446;2024-01-11T14:52:55;14.73;;;6.80;;
78542;SDS011;67836;52.430;14.446;2024-01-11T14:55:38;22.83;;;10.50;;
78542;SDS011;67836;52.430;14.446;2024-01-11T14:58:22;23.25;;;11.80;;
78542;SDS011;67836;52.430;14.446;2024-01-11T15:01:06;30.70;;;14.35;;
78542;SDS011;67836;52.430;14.446;2024-01-11T15:03:50;22.23;;;9.55;;
78542;SDS011;67836;52.430;14.446;2024-01-11T15:06:33;15.38;;;6.55;;
78542;SDS011;67836;52.430;14.446;2024-01-11T15:09:17;27.38;;;10.25;;
78542;SDS011;67836;52.430;14.446;2024-01-11T15:12:01;16.10;;;7.53;;
78542;SDS011;67836;52.430;14.446;2024-01-11T15:14:45;17.38;;;7.20;;
78542;SDS011;67836;52.430;14.446;2024-01-11T15:17:29;17.08;;;8.63;;
78542;SDS011;67836;52.430;14.446;2024-01-11T15:20:14;18.63;;;6.15;;
78542;SDS011;67836;52.430;14.446;2024-01-11T15:22:59;27.02;;;12.70;;
78542;SDS011;67836;52.430;14.446;2024-01-11T15:25:42;25.98;;;11.73;;
78542;SDS011;67836;52.430;14.446;2024-01-11T15:28:27;35.63;;;14.95;;
78542;SDS011;67836;52.430;14.446;2024-01-11T15:31:11;31.83;;;15.00;;
78542;SDS011;67836;52.430;14.446;2024-01-11T15:33:55;27.42;;;13.45;;
78542;SDS011;67836;52.430;14.446;2024-01-11T15:36:39;27.77;;;12.68;;
78542;SDS011;67836;52.430;14.446;2024-01-11T15:39:23;29.77;;;12.85;;
78542;SDS011;67836;52.430;14.446;2024-01-11T15:42:07;29.83;;;14.45;;
78542;SDS011;67836;52.430;14.446;2024-01-11T15:44:51;33.15;;;15.55;;
78542;SDS011;67836;52.430;14.446;2024-01-11T15:47:35;38.33;;;18.92;;
78542;SDS011;67836;52.430;14.446;2024-01-11T15:50:19;34.97;;;15.30;;
78542;SDS011;67836;52.430;14.446;2024-01-11T15:53:03;32.05;;;12.85;;
78542;SDS011;67836;52.430;14.446;2024-01-11T15:55:47;29.88;;;12.43;;
78542;SDS011;67836;52.430;14.446;2024-01-11T15:58:32;37.88;;;17.98;;
78542;SDS011;67836;52.430;14.446;2024-01-11T16:01:16;22.38;;;10.02;;
78542;SDS011;67836;52.430;14.446;2024-01-11T16:04:00;22.52;;;10.23;;